createdAt,value
2022-12-04T00:02:44.279Z,-6.74
2022-12-04T00:07:49.249Z,-6.83
2022-12-04T00:12:52.833Z,-6.98
2022-12-04T00:17:56.259Z,-7.16
2022-12-04T00:23:01.130Z,-7.18
2022-12-04T00:28:04.673Z,-7.30
2022-12-04T00:33:08.005Z,-7.07
2022-12-04T00:38:12.770Z,-7.16
2022-12-04T00:43:16.334Z,-7.23
2022-12-04T00:48:20.009Z,-7.11
2022-12-04T00:53:25.071Z,-7.01
2022-12-04T00:58:28.509Z,-7.13
2022-12-04T01:03:32.131Z,-7.05
2022-12-04T01:08:36.994Z,-7.14
2022-12-04T01:13:40.171Z,-7.31
2022-12-04T01:18:43.596Z,-7.22
2022-12-04T01:23:48.833Z,-7.27
2022-12-04T01:28:52.324Z,-7.30
2022-12-04T01:33:55.659Z,-7.20
2022-12-04T01:39:00.635Z,-7.38
2022-12-04T01:44:12.250Z,-7.34
2022-12-04T01:49:20.449Z,-7.37
2022-12-04T01:54:29.776Z,-7.33
2022-12-04T01:59:37.298Z,-7.49
2022-12-04T02:04:42.819Z,-7.49
2022-12-04T02:09:56.555Z,-7.69
2022-12-04T02:15:08.010Z,-7.87
2022-12-04T02:20:25.239Z,-7.99
2022-12-04T02:25:40.716Z,-8.05
2022-12-04T02:30:46.887Z,-8.25
2022-12-04T02:35:56.371Z,-8.29
2022-12-04T02:41:03.456Z,-8.23
2022-12-04T02:46:11.791Z,-8.34
2022-12-04T02:51:17.567Z,-8.42
2022-12-04T02:56:26.395Z,-8.42
2022-12-04T03:01:35.655Z,-8.49
2022-12-04T03:06:43.882Z,-8.42
2022-12-04T03:11:51.846Z,-8.47
2022-12-04T03:17:00.716Z,-8.46
2022-12-04T03:22:08.191Z,-8.51
2022-12-04T03:27:16.242Z,-8.40
2022-12-04T03:32:28.147Z,-8.59
2022-12-04T03:37:39.079Z,-8.57
2022-12-04T03:42:47.426Z,-8.69
2022-12-04T03:47:58.512Z,-8.69
2022-12-04T03:53:06.827Z,-8.62
2022-12-04T03:58:17.678Z,-8.95
2022-12-04T04:03:26.377Z,-8.90
2022-12-04T04:08:35.920Z,-9.06
2022-12-04T04:14:01.882Z,-8.99
2022-12-04T04:19:25.772Z,-9.08
2022-12-04T04:24:34.890Z,-9.12
2022-12-04T04:29:39.311Z,-9.27
2022-12-04T04:34:48.926Z,-9.37
2022-12-04T04:39:58.349Z,-9.28
2022-12-04T04:45:06.813Z,-9.21
2022-12-04T04:50:13.637Z,-9.38
2022-12-04T04:55:19.332Z,-9.33
2022-12-04T05:00:24.249Z,-9.52
2022-12-04T05:05:29.170Z,-9.47
2022-12-04T05:10:32.660Z,-9.54
2022-12-04T05:15:36.134Z,-9.35
2022-12-04T05:20:42.031Z,-9.33
2022-12-04T05:25:45.480Z,-9.34
2022-12-04T05:30:56.796Z,-9.32
2022-12-04T05:36:02.658Z,-9.20
2022-12-04T05:41:07.391Z,-9.34
2022-12-04T05:46:11.742Z,-9.31
2022-12-04T05:51:16.210Z,-9.16
2022-12-04T05:56:19.666Z,-9.08
2022-12-04T06:01:25.204Z,-9.34
2022-12-04T06:06:30.177Z,-9.05
2022-12-04T06:11:35.790Z,-9.00
2022-12-04T06:16:41.261Z,-9.21
2022-12-04T06:21:49.107Z,-8.74
2022-12-04T06:27:27.215Z,-8.66
2022-12-04T06:32:22.041Z,-8.62
2022-12-04T06:37:27.357Z,-7.91
2022-12-04T06:42:30.791Z,-6.09
2022-12-04T06:47:36.236Z,-3.93
2022-12-04T06:52:40.987Z,-3.29
2022-12-04T06:57:44.047Z,-2.05
2022-12-04T07:02:47.399Z,-1.77
2022-12-04T07:07:52.239Z,-2.16
2022-12-04T07:12:55.312Z,-3.78
2022-12-04T07:17:58.651Z,-3.75
2022-12-04T07:23:07.224Z,-4.94
2022-12-04T07:28:12.583Z,-5.44
2022-12-04T07:33:15.937Z,-6.08
2022-12-04T07:38:20.662Z,-5.03
2022-12-04T07:43:23.849Z,-3.36
2022-12-04T07:48:32.992Z,-1.83
2022-12-04T07:53:38.554Z,-0.56
2022-12-04T07:58:42.786Z,-0.51
2022-12-04T08:03:48.909Z,-0.37
2022-12-04T08:08:54.584Z,-0.74
2022-12-04T08:13:59.205Z,-1.82
2022-12-04T08:19:03.362Z,-0.49
2022-12-04T08:24:08.411Z,0.44
2022-12-04T08:29:12.267Z,-0.43
2022-12-04T08:34:15.731Z,-2.11
2022-12-04T08:39:20.623Z,-2.87
2022-12-04T08:44:24.156Z,-2.99
2022-12-04T08:49:27.498Z,-3.33
2022-12-04T08:54:36.065Z,-3.72
2022-12-04T08:59:39.973Z,-4.47
2022-12-04T09:04:43.552Z,-4.75
2022-12-04T09:09:48.677Z,-4.81
2022-12-04T09:14:52.218Z,-4.90
2022-12-04T09:20:00.667Z,-5.00
2022-12-04T09:25:06.781Z,-5.04
2022-12-04T09:30:12.205Z,-5.36
2022-12-04T09:35:17.493Z,-5.69
2022-12-04T09:40:35.155Z,-5.72
2022-12-04T09:45:47.565Z,-5.87
2022-12-04T09:50:52.504Z,-5.86
2022-12-04T09:56:03.758Z,-5.87
2022-12-04T10:01:07.393Z,-6.01
2022-12-04T10:06:14.998Z,-5.98
2022-12-04T10:11:32.568Z,-5.72
2022-12-04T10:16:49.043Z,-5.90
2022-12-04T10:22:04.866Z,-5.74
2022-12-04T10:27:16.125Z,-5.96
2022-12-04T10:32:23.464Z,-5.81
2022-12-04T10:37:28.972Z,-5.87
2022-12-04T10:42:40.564Z,-5.72
2022-12-04T10:47:47.420Z,-5.83
2022-12-04T10:52:51.538Z,-5.53
2022-12-04T10:57:56.434Z,-5.55
2022-12-04T11:03:02.925Z,-5.92
2022-12-04T11:08:08.092Z,-5.75
2022-12-04T11:13:18.843Z,-5.95
2022-12-04T11:18:23.886Z,-6.17
2022-12-04T11:23:28.176Z,-5.99
2022-12-04T11:28:41.569Z,-5.93
2022-12-04T11:33:49.081Z,-5.98
2022-12-04T11:38:55.581Z,-6.13
2022-12-04T11:44:01.262Z,-6.23
2022-12-04T11:49:04.614Z,-6.18
2022-12-04T11:54:18.194Z,-6.39
2022-12-04T11:59:43.027Z,-6.38
2022-12-04T12:05:09.720Z,-6.41
2022-12-04T12:10:19.429Z,-6.62
2022-12-04T12:15:31.689Z,-6.68
2022-12-04T12:20:42.863Z,-6.85
2022-12-04T12:25:56.958Z,-6.84
2022-12-04T12:31:14.082Z,-7.05
2022-12-04T12:36:17.629Z,-7.04
2022-12-04T12:41:25.110Z,-7.05
2022-12-04T12:46:35.122Z,-7.31
2022-12-04T12:51:43.758Z,-7.36
2022-12-04T12:56:52.703Z,-7.30
2022-12-04T13:02:01.610Z,-7.46
2022-12-04T13:07:21.478Z,-7.46
2022-12-04T13:12:26.067Z,-7.40
2022-12-04T13:17:35.146Z,-7.53
2022-12-04T13:22:51.057Z,-7.66
2022-12-04T13:28:05.675Z,-7.57
2022-12-04T13:33:41.420Z,-7.62
2022-12-04T13:39:00.335Z,-7.69
2022-12-04T13:44:07.178Z,-7.64
2022-12-04T13:49:27.203Z,-7.76
2022-12-04T13:54:32.573Z,-7.75
2022-12-04T13:59:38.633Z,-7.82
2022-12-04T14:04:53.784Z,-7.79
2022-12-04T14:09:59.092Z,-7.79
2022-12-04T14:15:04.936Z,-7.87
2022-12-04T14:20:25.231Z,-7.83
2022-12-04T14:25:36.987Z,-7.83
2022-12-04T14:30:41.919Z,-7.96
2022-12-04T14:35:52.611Z,-7.88
2022-12-04T14:40:58.567Z,-7.91
2022-12-04T14:46:08.642Z,-7.89
2022-12-04T14:51:19.030Z,-7.89
2022-12-04T14:56:33.298Z,-7.97
2022-12-04T15:01:39.309Z,-8.03
2022-12-04T15:06:48.758Z,-7.88
2022-12-04T15:12:12.149Z,-8.00
2022-12-04T15:17:17.160Z,-8.13
2022-12-04T15:22:25.002Z,-8.04
2022-12-04T15:27:32.760Z,-8.09
2022-12-04T15:32:36.627Z,-8.12
2022-12-04T15:37:42.566Z,-8.20
2022-12-04T15:42:45.986Z,-8.20
2022-12-04T15:47:53.936Z,-8.09
2022-12-04T15:53:04.091Z,-8.16
2022-12-04T15:58:19.306Z,-8.17
2022-12-04T16:03:28.129Z,-8.25
2022-12-04T16:08:36.325Z,-8.24
2022-12-04T16:13:40.711Z,-8.20
2022-12-04T16:18:45.246Z,-8.40
2022-12-04T16:23:50.461Z,-8.34
2022-12-04T16:28:53.906Z,-8.39
2022-12-04T16:33:57.436Z,-8.42
2022-12-04T16:39:02.206Z,-8.60
2022-12-04T16:44:13.467Z,-8.46
2022-12-04T16:49:19.562Z,-8.66
2022-12-04T16:54:24.471Z,-8.72
2022-12-04T16:59:27.825Z,-8.73
2022-12-04T17:04:31.395Z,-8.76
2022-12-04T17:09:36.195Z,-8.68
2022-12-04T17:14:41.062Z,-8.68
2022-12-04T17:19:44.491Z,-8.96
2022-12-04T17:24:55.758Z,-8.87
2022-12-04T17:30:00.993Z,-8.85
2022-12-04T17:35:06.388Z,-8.81
2022-12-04T17:40:14.567Z,-8.96
2022-12-04T17:45:18.520Z,-8.97
2022-12-04T17:50:21.929Z,-8.91
2022-12-04T17:55:26.775Z,-8.98
2022-12-04T18:00:30.671Z,-9.10
2022-12-04T18:05:34.011Z,-9.23
2022-12-04T18:10:38.954Z,-9.28
2022-12-04T18:15:42.574Z,-9.25
2022-12-04T18:20:46.114Z,-9.30
2022-12-04T18:25:57.544Z,-9.35
2022-12-04T18:31:04.087Z,-9.32
2022-12-04T18:36:09.686Z,-9.40
2022-12-04T18:41:16.078Z,-9.42
2022-12-04T18:46:20.197Z,-9.45
2022-12-04T18:51:25.283Z,-9.69
2022-12-04T18:56:30.581Z,-9.53
2022-12-04T19:01:35.733Z,-9.61
2022-12-04T19:06:42.119Z,-9.67
2022-12-04T19:11:47.748Z,-9.70
2022-12-04T19:16:51.922Z,-9.61
2022-12-04T19:21:56.797Z,-9.66
2022-12-04T19:27:02.107Z,-9.81
2022-12-04T19:32:05.906Z,-9.81
2022-12-04T19:37:09.244Z,-9.81
2022-12-04T19:42:14.126Z,-9.84
2022-12-04T19:47:17.752Z,-9.85
2022-12-04T19:52:21.905Z,-9.90
2022-12-04T19:57:26.790Z,-9.87
2022-12-04T20:02:30.363Z,-10.00
2022-12-04T20:07:34.047Z,-10.00
2022-12-04T20:12:38.918Z,-10.13
2022-12-04T20:17:42.541Z,-10.14
2022-12-04T20:22:48.355Z,-10.16
2022-12-04T20:27:53.431Z,-10.22
2022-12-04T20:32:56.915Z,-10.25
2022-12-04T20:38:00.358Z,-10.27
2022-12-04T20:43:05.382Z,-10.33
2022-12-04T20:48:08.854Z,-10.30
2022-12-04T20:53:12.279Z,-10.46
2022-12-04T20:58:17.238Z,-10.37
2022-12-04T21:03:20.515Z,-10.52
2022-12-04T21:08:37.730Z,-10.53
2022-12-04T21:13:59.933Z,-10.43
2022-12-04T21:19:03.447Z,-10.57
2022-12-04T21:24:08.471Z,-10.52
2022-12-04T21:29:13.330Z,-10.61
2022-12-04T21:34:18.149Z,-10.76
2022-12-04T21:44:46.837Z,-10.68
2022-12-04T21:49:50.381Z,-10.65
2022-12-04T21:54:54.550Z,-10.70
2022-12-04T21:59:59.495Z,-10.72
2022-12-04T22:05:03.040Z,-10.72
2022-12-04T22:10:10.859Z,-10.77
2022-12-04T22:15:16.043Z,-10.78
2022-12-04T22:20:19.789Z,-10.81
2022-12-04T22:25:23.264Z,-10.74
2022-12-04T22:30:28.567Z,-10.79
2022-12-04T22:35:33.684Z,-10.75
2022-12-04T22:40:38.867Z,-10.74
2022-12-04T22:45:43.630Z,-10.90
2022-12-04T22:50:47.107Z,-10.79
2022-12-04T22:55:50.512Z,-10.79
2022-12-04T23:00:55.330Z,-10.69
2022-12-04T23:11:16.514Z,-10.64
2022-12-04T23:16:20.548Z,-10.61
2022-12-04T23:21:24.607Z,-10.67
2022-12-04T23:26:32.435Z,-10.80
2022-12-04T23:31:35.844Z,-10.87
2022-12-04T23:36:39.278Z,-10.93
2022-12-04T23:41:44.104Z,-10.75
2022-12-04T23:46:47.403Z,-10.70
2022-12-04T23:51:50.887Z,-10.48
2022-12-04T23:56:56.528Z,-10.56
